Time,TemperatureF,DewpointF,PressureIn,WindDirection,WindDirectionDegrees,WindSpeedMPH,WindSpeedGustMPH,Humidity,HourlyPrecipIn,Conditions,Clouds,dailyrainin,SoftwareType,DateUTC
2013-08-04 00:03:00,71.0,62.0,29.85,NNW,336,0.0,0.0,74,0.00,,,0.04,,2013-08-04 04:03:00,
2013-08-04 00:12:00,71.0,62.0,29.85,NNW,336,0.0,0.0,74,0.00,,,0.04,,2013-08-04 04:12:00,
2013-08-04 00:22:00,70.0,62.0,29.85,NNW,336,0.0,0.0,76,0.00,,,0.04,,2013-08-04 04:22:00,
2013-08-04 00:32:00,70.0,62.0,29.85,NNW,336,0.0,0.0,76,0.00,,,0.04,,2013-08-04 04:32:00,
2013-08-04 00:42:00,70.0,62.0,29.85,NNW,336,0.0,0.0,76,0.00,,,0.04,,2013-08-04 04:42:00,
2013-08-04 00:52:00,70.0,62.0,29.85,NNW,336,0.0,0.0,76,0.00,,,0.04,,2013-08-04 04:52:00,
2013-08-04 01:02:00,70.0,62.0,29.85,NNW,336,0.0,0.0,76,0.00,,,0.04,,2013-08-04 05:02:00,
2013-08-04 02:12:00,68.0,62.0,29.84,NNW,334,0.0,0.0,82,0.00,,,0.04,,2013-08-04 06:12:00,
2013-08-04 02:22:00,68.0,62.0,29.84,NNW,334,0.0,0.0,82,0.00,,,0.04,,2013-08-04 06:22:00,
2013-08-04 02:32:00,67.0,62.0,29.83,NNW,338,0.0,0.0,84,0.00,,,0.04,,2013-08-04 06:32:00,
2013-08-04 02:43:00,67.0,62.0,29.83,NNW,338,0.0,0.0,84,0.00,,,0.04,,2013-08-04 06:43:00,
2013-08-04 02:52:00,67.0,62.0,29.83,NNW,333,0.0,0.0,84,0.00,,,0.04,,2013-08-04 06:52:00,
2013-08-04 03:02:00,67.0,62.0,29.83,NNW,333,0.0,0.0,84,0.00,,,0.04,,2013-08-04 07:02:00,
2013-08-04 03:12:00,67.0,62.0,29.83,NNW,333,0.0,0.0,84,0.00,,,0.04,,2013-08-04 07:12:00,
2013-08-04 03:22:00,66.0,60.0,29.83,NNW,335,1.0,2.0,82,0.00,,,0.04,,2013-08-04 07:22:00,
2013-08-04 03:33:00,66.0,60.0,29.83,NNW,335,1.0,2.0,82,0.00,,,0.04,,2013-08-04 07:33:00,
2013-08-04 03:42:00,66.0,60.0,29.83,NNW,347,0.0,1.0,80,0.00,,,0.04,,2013-08-04 07:42:00,
2013-08-04 03:53:00,66.0,60.0,29.83,NNW,347,0.0,2.0,80,0.00,,,0.04,,2013-08-04 07:53:00,
2013-08-04 04:02:00,66.0,60.0,29.83,NNW,347,0.0,2.0,80,0.00,,,0.04,,2013-08-04 08:02:00,
2013-08-04 04:12:00,66.0,59.0,29.83,NNW,345,1.0,2.0,79,0.00,,,0.04,,2013-08-04 08:12:00,
2013-08-04 04:23:00,66.0,59.0,29.83,North,0,1.0,3.0,78,0.00,,,0.04,,2013-08-04 08:23:00,
2013-08-04 04:33:00,66.0,58.0,29.83,NNW,348,0.0,2.0,76,0.00,,,0.04,,2013-08-04 08:33:00,
2013-08-04 04:43:00,66.0,58.0,29.83,NNW,348,0.0,2.0,76,0.00,,,0.04,,2013-08-04 08:43:00,
2013-08-04 04:53:00,65.0,56.0,29.83,NNW,345,0.0,0.0,73,0.00,,,0.04,,2013-08-04 08:53:00,
2013-08-04 05:02:00,65.0,56.0,29.83,NNW,347,0.0,2.0,72,0.00,,,0.04,,2013-08-04 09:02:00,
2013-08-04 05:12:00,65.0,55.0,29.83,NNW,346,0.0,1.0,71,0.00,,,0.04,,2013-08-04 09:12:00,
2013-08-04 05:22:00,65.0,55.0,29.83,North,350,3.0,3.0,70,0.00,,,0.04,,2013-08-04 09:22:00,
2013-08-04 05:32:00,65.0,55.0,29.83,North,349,0.0,2.0,70,0.00,,,0.04,,2013-08-04 09:32:00,
2013-08-04 05:43:00,65.0,55.0,29.83,North,354,3.0,3.0,69,0.00,,,0.04,,2013-08-04 09:43:00,
2013-08-04 05:52:00,65.0,55.0,29.83,North,358,2.0,3.0,69,0.00,,,0.04,,2013-08-04 09:52:00,
2013-08-04 06:02:00,65.0,55.0,29.83,North,358,2.0,3.0,69,0.00,,,0.04,,2013-08-04 10:02:00,
2013-08-04 06:12:00,65.0,55.0,29.83,North,358,2.0,3.0,69,0.00,,,0.04,,2013-08-04 10:12:00,
2013-08-04 06:22:00,65.0,55.0,29.83,North,0,2.0,3.0,69,0.00,,,0.04,,2013-08-04 10:22:00,
2013-08-04 06:32:00,65.0,55.0,29.83,North,357,2.0,3.0,69,0.00,,,0.04,,2013-08-04 10:32:00,
2013-08-04 06:43:00,65.0,55.0,29.83,North,357,2.0,3.0,69,0.00,,,0.04,,2013-08-04 10:43:00,
2013-08-04 06:53:00,65.0,55.0,29.84,NNW,329,4.0,6.0,70,0.00,,,0.04,,2013-08-04 10:53:00,
2013-08-04 07:02:00,65.0,55.0,29.84,NNW,335,1.0,3.0,70,0.00,,,0.04,,2013-08-04 11:02:00,
2013-08-04 07:12:00,65.0,55.0,29.84,NNW,335,3.0,3.0,70,0.00,,,0.04,,2013-08-04 11:12:00,
2013-08-04 07:22:00,65.0,55.0,29.84,NNW,330,0.0,1.0,69,0.00,,,0.04,,2013-08-04 11:22:00,
2013-08-04 07:32:00,66.0,55.0,29.84,NNW,333,0.0,1.0,68,0.00,,,0.04,,2013-08-04 11:32:00,
2013-08-04 07:42:00,66.0,55.0,29.84,NNW,330,0.0,3.0,67,0.00,,,0.04,,2013-08-04 11:42:00,
2013-08-04 07:53:00,66.0,55.0,29.84,NNW,330,0.0,3.0,67,0.00,,,0.04,,2013-08-04 11:53:00,
2013-08-04 08:02:00,66.0,55.0,29.84,NNW,330,0.0,3.0,67,0.00,,,0.04,,2013-08-04 12:02:00,
2013-08-04 08:13:00,66.0,55.0,29.84,NNW,330,0.0,3.0,67,0.00,,,0.04,,2013-08-04 12:13:00,
2013-08-04 08:22:00,69.0,55.0,29.85,North,359,3.0,3.0,62,0.00,,,0.04,,2013-08-04 12:22:00,
2013-08-04 08:32:00,69.0,55.0,29.85,North,359,3.0,3.0,62,0.00,,,0.04,,2013-08-04 12:32:00,
2013-08-04 08:43:00,70.0,55.0,29.85,NNW,342,3.0,5.0,59,0.00,,,0.04,,2013-08-04 12:43:00,
2013-08-04 08:53:00,71.0,55.0,29.85,North,349,5.0,5.0,58,0.00,,,0.04,,2013-08-04 12:53:00,
2013-08-04 09:02:00,71.0,55.0,29.85,NW,322,4.0,9.0,57,0.00,,,0.04,,2013-08-04 13:02:00,
2013-08-04 09:12:00,71.0,55.0,29.85,NW,322,4.0,9.0,57,0.00,,,0.04,,2013-08-04 13:12:00,
2013-08-04 09:22:00,72.0,55.0,29.85,NNW,332,3.0,4.0,56,0.00,,,0.04,,2013-08-04 13:22:00,
2013-08-04 09:32:00,72.0,55.0,29.85,NNW,332,3.0,4.0,56,0.00,,,0.04,,2013-08-04 13:32:00,
2013-08-04 09:42:00,75.0,57.0,29.85,WNW,290,2.0,3.0,53,0.00,,,0.04,,2013-08-04 13:42:00,
2013-08-04 09:52:00,75.0,57.0,29.85,WNW,290,2.0,3.0,53,0.00,,,0.04,,2013-08-04 13:52:00,
2013-08-04 10:02:00,75.0,57.0,29.85,WNW,290,2.0,3.0,53,0.00,,,0.04,,2013-08-04 14:02:00,
2013-08-04 10:12:00,75.0,57.0,29.85,WNW,290,2.0,3.0,53,0.00,,,0.04,,2013-08-04 14:12:00,
2013-08-04 10:22:00,77.0,57.0,29.85,NW,305,3.0,7.0,50,0.00,,,0.03,,2013-08-04 14:22:00,
2013-08-04 10:33:00,77.0,57.0,29.85,NW,305,3.0,7.0,50,0.00,,,0.03,,2013-08-04 14:33:00,
2013-08-04 10:43:00,78.0,57.0,29.85,NNE,18,4.0,8.0,49,0.00,,,0.03,,2013-08-04 14:43:00,
2013-08-04 10:53:00,78.0,57.0,29.85,NNE,18,4.0,8.0,49,0.00,,,0.03,,2013-08-04 14:53:00,
2013-08-04 11:02:00,79.0,57.0,29.85,NNW,345,0.0,2.0,47,0.00,,,0.03,,2013-08-04 15:02:00,
2013-08-04 11:12:00,79.0,56.0,29.85,NNW,340,9.0,9.0,46,0.00,,,0.03,,2013-08-04 15:12:00,
2013-08-04 11:22:00,79.0,56.0,29.85,NNW,340,9.0,9.0,46,0.00,,,0.03,,2013-08-04 15:22:00,
2013-08-04 11:32:00,79.0,56.0,29.85,NNW,340,9.0,9.0,46,0.00,,,0.03,,2013-08-04 15:32:00,
2013-08-04 11:43:00,80.0,55.0,29.85,NW,321,11.0,12.0,43,0.00,,,0.02,,2013-08-04 15:43:00,
2013-08-04 11:53:00,80.0,55.0,29.85,NNW,339,9.0,10.0,43,0.00,,,0.02,,2013-08-04 15:53:00,
2013-08-04 12:02:00,80.0,55.0,29.85,NNW,339,9.0,10.0,43,0.00,,,0.02,,2013-08-04 16:02:00,
2013-08-04 12:12:00,80.0,55.0,29.85,NNW,345,11.0,11.0,43,0.00,,,0.02,,2013-08-04 16:12:00,
2013-08-04 12:22:00,80.0,57.0,29.85,NNW,345,4.0,6.0,46,0.00,,,0.02,,2013-08-04 16:22:00,
2013-08-04 12:33:00,79.0,56.0,29.85,NW,313,5.0,11.0,45,0.00,,,0.02,,2013-08-04 16:33:00,
2013-08-04 12:42:00,79.0,55.0,29.85,NNW,333,9.0,12.0,44,0.00,,,0.02,,2013-08-04 16:42:00,
2013-08-04 12:53:00,80.0,55.0,29.85,North,354,4.0,8.0,42,0.00,,,0.02,,2013-08-04 16:53:00,
2013-08-04 13:02:00,80.0,56.0,29.85,North,354,5.0,9.0,44,0.00,,,0.01,,2013-08-04 17:02:00,
2013-08-04 13:12:00,80.0,56.0,29.85,WNW,297,4.0,5.0,44,0.00,,,0.01,,2013-08-04 17:12:00,
2013-08-04 13:22:00,80.0,56.0,29.85,WNW,297,4.0,5.0,44,0.00,,,0.01,,2013-08-04 17:22:00,
2013-08-04 13:32:00,80.0,56.0,29.85,WNW,297,4.0,5.0,44,0.00,,,0.01,,2013-08-04 17:32:00,
2013-08-04 13:43:00,80.0,56.0,29.85,WNW,297,4.0,5.0,44,0.00,,,0.01,,2013-08-04 17:43:00,
2013-08-04 14:02:00,80.0,53.0,29.85,NNW,328,10.0,10.0,39,0.00,,,0.00,,2013-08-04 18:02:00,
2013-08-04 14:12:00,80.0,53.0,29.85,NNW,328,10.0,10.0,39,0.00,,,0.00,,2013-08-04 18:12:00,
2013-08-04 14:23:00,80.0,55.0,29.84,North,8,5.0,10.0,42,0.00,,,0.00,,2013-08-04 18:23:00,
2013-08-04 14:33:00,80.0,55.0,29.84,North,8,5.0,10.0,42,0.00,,,0.00,,2013-08-04 18:33:00,
2013-08-04 14:43:00,81.0,53.0,29.84,NW,323,3.0,9.0,38,0.00,,,0.00,,2013-08-04 18:43:00,
2013-08-04 14:52:00,82.0,54.0,29.84,NNW,340,5.0,9.0,38,0.00,,,0.00,,2013-08-04 18:52:00,
2013-08-04 15:02:00,82.0,54.0,29.84,NNW,340,5.0,9.0,38,0.00,,,0.00,,2013-08-04 19:02:00,
2013-08-04 15:12:00,82.0,52.0,29.84,WNW,293,5.0,15.0,35,0.00,,,0.00,,2013-08-04 19:12:00,
2013-08-04 15:22:00,82.0,53.0,29.84,WNW,302,8.0,10.0,37,0.00,,,0.00,,2013-08-04 19:22:00,
2013-08-04 15:33:00,82.0,53.0,29.84,WNW,302,8.0,10.0,37,0.00,,,0.00,,2013-08-04 19:33:00,
2013-08-04 15:44:00,82.0,53.0,29.84,WNW,302,8.0,10.0,37,0.00,,,0.00,,2013-08-04 19:44:00,
2013-08-04 15:52:00,82.0,51.0,29.83,NNW,340,4.0,10.0,34,0.00,,,0.00,,2013-08-04 19:52:00,
2013-08-04 16:02:00,81.0,50.0,29.83,NW,312,5.0,10.0,34,0.00,,,0.00,,2013-08-04 20:02:00,
2013-08-04 16:12:00,80.0,50.0,29.83,NNW,338,9.0,12.0,35,0.00,,,0.00,,2013-08-04 20:12:00,
2013-08-04 16:22:00,80.0,50.0,29.83,NNW,338,9.0,12.0,35,0.00,,,0.00,,2013-08-04 20:22:00,
2013-08-04 16:33:00,81.0,50.0,29.83,NNW,343,8.0,12.0,34,0.00,,,0.00,,2013-08-04 20:33:00,
2013-08-04 16:43:00,81.0,50.0,29.83,NNW,343,8.0,12.0,34,0.00,,,0.00,,2013-08-04 20:43:00,
2013-08-04 16:53:00,81.0,50.0,29.83,NW,309,6.0,11.0,34,0.00,,,0.00,,2013-08-04 20:53:00,
2013-08-04 17:02:00,81.0,52.0,29.83,NNW,345,10.0,12.0,36,0.00,,,0.00,,2013-08-04 21:02:00,
2013-08-04 17:12:00,80.0,51.0,29.83,WNW,285,4.0,15.0,37,0.00,,,0.00,,2013-08-04 21:12:00,
2013-08-04 17:22:00,80.0,51.0,29.83,WNW,285,4.0,15.0,37,0.00,,,0.00,,2013-08-04 21:22:00,
2013-08-04 17:32:00,80.0,51.0,29.83,NNW,336,10.0,11.0,37,0.00,,,0.00,,2013-08-04 21:32:00,
2013-08-04 17:43:00,80.0,51.0,29.83,NW,308,3.0,12.0,37,0.00,,,0.00,,2013-08-04 21:43:00,
2013-08-04 17:53:00,80.0,51.0,29.83,NW,308,3.0,12.0,37,0.00,,,0.00,,2013-08-04 21:53:00,
2013-08-04 18:02:00,80.0,51.0,29.84,NW,323,12.0,16.0,37,0.00,,,0.00,,2013-08-04 22:02:00,
2013-08-04 18:12:00,80.0,51.0,29.84,NW,323,12.0,16.0,37,0.00,,,0.00,,2013-08-04 22:12:00,
2013-08-04 18:22:00,80.0,51.0,29.84,NW,323,12.0,16.0,37,0.00,,,0.00,,2013-08-04 22:22:00,
2013-08-04 18:32:00,78.0,51.0,29.84,NNW,327,3.0,10.0,39,0.00,,,0.00,,2013-08-04 22:32:00,
2013-08-04 18:43:00,78.0,51.0,29.84,NNW,327,3.0,10.0,39,0.00,,,0.00,,2013-08-04 22:43:00,
2013-08-04 18:53:00,78.0,52.0,29.84,North,357,5.0,10.0,41,0.00,,,0.00,,2013-08-04 22:53:00,
2013-08-04 19:02:00,78.0,52.0,29.84,North,357,5.0,10.0,41,0.00,,,0.00,,2013-08-04 23:02:00,
2013-08-04 19:12:00,77.0,51.0,29.85,WNW,303,10.0,13.0,41,0.00,,,0.00,,2013-08-04 23:12:00,
2013-08-04 19:23:00,77.0,51.0,29.86,NW,310,5.0,9.0,41,0.00,,,0.00,,2013-08-04 23:23:00,
2013-08-04 19:32:00,77.0,52.0,29.86,NNW,330,9.0,14.0,42,0.00,,,0.00,,2013-08-04 23:32:00,
2013-08-04 19:43:00,77.0,52.0,29.86,NNW,330,9.0,14.0,42,0.00,,,0.00,,2013-08-04 23:43:00,
2013-08-04 19:53:00,76.0,52.0,29.87,NW,323,10.0,13.0,43,0.00,,,0.00,,2013-08-04 23:53:00,
2013-08-04 20:02:00,76.0,52.0,29.87,WNW,302,6.0,11.0,44,0.00,,,0.00,,2013-08-05 00:02:00,
2013-08-04 20:12:00,75.0,52.0,29.87,North,358,4.0,10.0,44,0.00,,,0.00,,2013-08-05 00:12:00,
2013-08-04 20:22:00,75.0,52.0,29.88,NW,323,6.0,9.0,45,0.00,,,0.00,,2013-08-05 00:22:00,
2013-08-04 20:32:00,74.0,52.0,29.88,NW,320,2.0,9.0,46,0.00,,,0.00,,2013-08-05 00:32:00,
2013-08-04 20:42:00,74.0,52.0,29.88,NW,320,2.0,9.0,46,0.00,,,0.00,,2013-08-05 00:42:00,
2013-08-04 20:52:00,74.0,52.0,29.89,NW,317,9.0,10.0,47,0.00,,,0.00,,2013-08-05 00:52:00,
2013-08-04 21:02:00,74.0,52.0,29.89,NW,317,9.0,10.0,47,0.00,,,0.00,,2013-08-05 01:02:00,
2013-08-04 21:12:00,74.0,52.0,29.90,NNW,338,6.0,6.0,46,0.00,,,0.00,,2013-08-05 01:12:00,
2013-08-04 21:22:00,74.0,52.0,29.90,NNW,338,6.0,6.0,46,0.00,,,0.00,,2013-08-05 01:22:00,
2013-08-04 21:33:00,74.0,52.0,29.90,NNW,338,6.0,6.0,46,0.00,,,0.00,,2013-08-05 01:33:00,
2013-08-04 21:42:00,74.0,52.0,29.90,NNW,338,6.0,6.0,46,0.00,,,0.00,,2013-08-05 01:42:00,
2013-08-04 21:52:00,72.0,51.0,29.92,NNW,337,3.0,5.0,48,0.00,,,0.00,,2013-08-05 01:52:00,
2013-08-04 22:02:00,72.0,51.0,29.92,NNW,337,3.0,5.0,48,0.00,,,0.00,,2013-08-05 02:02:00,
2013-08-04 22:12:00,71.0,50.0,29.93,NNW,330,4.0,6.0,48,0.00,,,0.00,,2013-08-05 02:12:00,
2013-08-04 22:22:00,71.0,50.0,29.93,North,1,5.0,10.0,48,0.00,,,0.00,,2013-08-05 02:22:00,
2013-08-04 22:33:00,71.0,50.0,29.93,North,1,5.0,10.0,48,0.00,,,0.00,,2013-08-05 02:33:00,
2013-08-04 22:43:00,71.0,50.0,29.93,NW,312,6.0,6.0,48,0.00,,,0.00,,2013-08-05 02:43:00,
2013-08-04 22:53:00,70.0,49.0,29.93,NW,324,8.0,8.0,47,0.00,,,0.00,,2013-08-05 02:53:00,
2013-08-04 23:02:00,70.0,49.0,29.93,WNW,297,2.0,3.0,47,0.00,,,0.00,,2013-08-05 03:02:00,
2013-08-04 23:12:00,70.0,49.0,29.94,NW,319,5.0,5.0,47,0.00,,,0.00,,2013-08-05 03:12:00,
2013-08-04 23:22:00,70.0,49.0,29.94,NNW,332,8.0,8.0,47,0.00,,,0.00,,2013-08-05 03:22:00,
2013-08-04 23:32:00,69.0,48.0,29.94,NW,311,5.0,6.0,48,0.00,,,0.00,,2013-08-05 03:32:00,
2013-08-04 23:42:00,69.0,49.0,29.93,NNW,335,3.0,8.0,49,0.00,,,0.00,,2013-08-05 03:42:00,
2013-08-04 23:53:00,68.0,49.0,29.93,NW,319,3.0,3.0,50,0.00,,,0.00,,2013-08-05 03:53:00,